createdAt,value
2023-03-05T00:01:39.596Z,1.80
2023-03-05T00:04:08.595Z,1.50
2023-03-05T00:06:35.738Z,1.63
2023-03-05T00:09:03.413Z,1.40
2023-03-05T00:11:31.506Z,1.70
2023-03-05T00:13:59.141Z,1.45
2023-03-05T00:16:26.901Z,1.50
2023-03-05T00:18:54.364Z,1.25
2023-03-05T00:21:21.516Z,1.70
2023-03-05T00:23:50.650Z,1.77
2023-03-05T00:26:21.451Z,1.77
2023-03-05T00:28:50.175Z,1.80
2023-03-05T00:31:18.063Z,2.08
2023-03-05T00:33:45.448Z,1.95
2023-03-05T00:36:13.107Z,1.40
2023-03-05T00:38:40.168Z,1.95
2023-03-05T00:43:34.398Z,2.10
2023-03-05T00:46:01.599Z,2.10
2023-03-05T00:48:28.862Z,1.95
2023-03-05T00:50:56.048Z,2.08
2023-03-05T00:53:23.558Z,2.03
2023-03-05T00:55:51.582Z,1.95
2023-03-05T00:58:18.721Z,1.50
2023-03-05T01:00:46.014Z,2.28
2023-03-05T01:03:13.084Z,1.73
2023-03-05T01:05:40.282Z,1.73
2023-03-05T01:08:07.460Z,1.80
2023-03-05T01:10:34.590Z,1.85
2023-03-05T01:13:01.874Z,1.83
2023-03-05T01:15:29.050Z,2.20
2023-03-05T01:17:56.189Z,1.98
2023-03-05T01:20:23.775Z,2.28
2023-03-05T01:22:51.020Z,1.92
2023-03-05T01:25:18.607Z,2.42
2023-03-05T01:27:45.708Z,2.08
2023-03-05T01:30:14.191Z,2.22
2023-03-05T01:32:41.631Z,2.03
2023-03-05T01:35:09.284Z,1.92
2023-03-05T01:37:36.481Z,2.25
2023-03-05T01:40:03.708Z,1.75
2023-03-05T01:42:30.862Z,2.03
2023-03-05T01:45:02.854Z,2.25
2023-03-05T01:47:30.180Z,1.85
2023-03-05T01:49:57.444Z,1.85
2023-03-05T01:52:26.088Z,2.25
2023-03-05T01:55:16.197Z,2.10
2023-03-05T01:57:45.085Z,2.10
2023-03-05T02:00:16.966Z,2.10
2023-03-05T02:02:49.106Z,2.20
2023-03-05T02:05:27.105Z,2.10
2023-03-05T02:08:01.344Z,2.20
2023-03-05T02:10:30.539Z,2.50
2023-03-05T02:12:59.821Z,2.40
2023-03-05T02:15:26.980Z,2.28
2023-03-05T02:17:54.093Z,2.33
2023-03-05T02:20:23.328Z,2.38
2023-03-05T02:22:50.687Z,2.63
2023-03-05T02:25:22.687Z,2.33
2023-03-05T02:28:13.255Z,2.70
2023-03-05T02:30:40.325Z,2.40
2023-03-05T02:33:07.547Z,2.60
2023-03-05T02:35:35.002Z,2.83
2023-03-05T02:38:03.262Z,2.40
2023-03-05T02:40:30.386Z,2.50
2023-03-05T02:42:57.511Z,2.67
2023-03-05T02:45:24.958Z,2.33
2023-03-05T02:47:52.363Z,2.65
2023-03-05T02:50:19.534Z,2.10
2023-03-05T02:52:46.777Z,2.05
2023-03-05T02:55:15.998Z,1.98
2023-03-05T02:57:44.305Z,2.28
2023-03-05T03:00:11.807Z,2.22
2023-03-05T03:02:39.033Z,2.05
2023-03-05T03:05:06.532Z,2.22
2023-03-05T03:07:35.863Z,2.00
2023-03-05T03:10:03.410Z,2.25
2023-03-05T03:12:30.526Z,2.20
2023-03-05T03:14:57.856Z,2.00
2023-03-05T03:17:25.209Z,1.60
2023-03-05T03:19:52.328Z,2.25
2023-03-05T03:22:19.422Z,2.17
2023-03-05T03:24:46.573Z,1.77
2023-03-05T03:27:13.666Z,1.92
2023-03-05T03:32:08.522Z,1.90
2023-03-05T03:34:35.680Z,1.88
2023-03-05T03:39:29.544Z,1.83
2023-03-05T03:41:56.676Z,1.45
2023-03-05T03:44:23.858Z,1.70
2023-03-05T03:46:51.783Z,1.38
2023-03-05T03:49:20.121Z,1.75
2023-03-05T03:51:47.863Z,2.17
2023-03-05T03:54:15.482Z,1.50
2023-03-05T03:56:42.596Z,1.48
2023-03-05T03:59:10.066Z,1.50
2023-03-05T04:01:37.170Z,1.80
2023-03-05T04:06:31.816Z,1.65
2023-03-05T04:08:58.994Z,1.38
2023-03-05T04:11:26.243Z,1.55
2023-03-05T04:13:53.435Z,1.30
2023-03-05T04:16:21.416Z,1.30
2023-03-05T04:18:48.595Z,1.50
2023-03-05T04:21:15.809Z,1.33
2023-03-05T04:23:42.871Z,1.30
2023-03-05T04:28:36.752Z,1.30
2023-03-05T04:31:04.224Z,1.27
2023-03-05T04:33:31.510Z,1.50
2023-03-05T04:35:58.740Z,1.92
2023-03-05T04:38:25.905Z,1.35
2023-03-05T04:40:53.058Z,1.23
2023-03-05T04:43:20.149Z,1.30
2023-03-05T04:45:47.246Z,1.30
2023-03-05T04:48:14.423Z,1.25
2023-03-05T04:50:41.587Z,1.50
2023-03-05T04:53:08.720Z,1.33
2023-03-05T04:55:35.786Z,1.15
2023-03-05T05:00:29.922Z,1.10
2023-03-05T05:02:57.069Z,1.02
2023-03-05T05:05:26.112Z,1.02
2023-03-05T05:07:57.188Z,1.30
2023-03-05T05:10:24.883Z,1.60
2023-03-05T05:12:52.043Z,1.02
2023-03-05T05:15:19.261Z,1.30
2023-03-05T05:17:46.526Z,1.30
2023-03-05T05:20:14.569Z,0.85
2023-03-05T05:22:41.987Z,1.10
2023-03-05T05:25:10.301Z,1.20
2023-03-05T05:27:38.357Z,1.08
2023-03-05T05:30:05.940Z,1.25
2023-03-05T05:32:33.168Z,1.55
2023-03-05T05:35:00.490Z,1.08
2023-03-05T05:37:27.703Z,1.30
2023-03-05T05:39:54.839Z,1.20
2023-03-05T05:42:23.330Z,1.20
2023-03-05T05:44:50.516Z,1.50
2023-03-05T05:47:18.118Z,1.40
2023-03-05T05:49:45.238Z,1.13
2023-03-05T05:52:13.108Z,1.20
2023-03-05T05:54:40.199Z,1.30
2023-03-05T05:57:07.755Z,1.30
2023-03-05T05:59:34.899Z,1.52
2023-03-05T06:02:02.169Z,1.35
2023-03-05T06:04:29.356Z,1.10
2023-03-05T06:06:56.447Z,1.48
2023-03-05T06:09:23.492Z,1.30
2023-03-05T06:14:17.602Z,1.17
2023-03-05T06:16:44.897Z,1.33
2023-03-05T06:19:15.621Z,1.42
2023-03-05T06:21:45.521Z,1.20
2023-03-05T06:24:13.609Z,1.50
2023-03-05T06:26:40.782Z,1.27
2023-03-05T06:29:07.953Z,1.38
2023-03-05T06:31:37.212Z,1.20
2023-03-05T06:34:04.514Z,1.45
2023-03-05T06:36:31.988Z,1.60
2023-03-05T06:38:59.472Z,1.50
2023-03-05T06:41:30.327Z,1.33
2023-03-05T06:43:57.637Z,1.20
2023-03-05T06:46:25.788Z,1.50
2023-03-05T06:48:53.593Z,1.60
2023-03-05T06:51:22.715Z,1.70
2023-03-05T06:53:49.962Z,1.60
2023-03-05T06:56:17.971Z,1.35
2023-03-05T06:58:46.280Z,1.50
2023-03-05T07:01:14.311Z,1.80
2023-03-05T07:03:41.949Z,1.40
2023-03-05T07:06:13.520Z,1.30
2023-03-05T07:08:40.688Z,1.40
2023-03-05T07:11:15.138Z,1.40
2023-03-05T07:13:43.156Z,1.42
2023-03-05T07:16:11.710Z,1.27
2023-03-05T07:18:38.810Z,1.20
2023-03-05T07:21:06.825Z,1.27
2023-03-05T07:23:34.591Z,1.35
2023-03-05T07:26:05.748Z,1.02
2023-03-05T07:28:33.794Z,0.90
2023-03-05T07:31:05.599Z,1.02
2023-03-05T07:33:33.523Z,0.93
2023-03-05T07:36:01.396Z,1.25
2023-03-05T07:38:28.530Z,0.90
2023-03-05T07:40:55.636Z,1.08
2023-03-05T07:43:22.725Z,0.90
2023-03-05T07:45:50.331Z,1.00
2023-03-05T07:48:20.838Z,0.80
2023-03-05T07:50:48.274Z,1.10
2023-03-05T07:53:15.575Z,0.95
2023-03-05T07:55:46.942Z,1.33
2023-03-05T07:58:14.649Z,1.20
2023-03-05T08:00:41.807Z,1.00
2023-03-05T08:03:09.024Z,1.40
2023-03-05T08:05:39.617Z,1.40
2023-03-05T08:08:07.217Z,0.93
2023-03-05T08:10:34.819Z,1.10
2023-03-05T08:13:02.148Z,0.85
2023-03-05T08:15:30.704Z,0.80
2023-03-05T08:17:57.992Z,0.85
2023-03-05T08:20:25.318Z,1.05
2023-03-05T08:22:52.482Z,1.20
2023-03-05T08:25:19.716Z,1.33
2023-03-05T08:27:47.987Z,1.02
2023-03-05T08:30:17.104Z,1.15
2023-03-05T08:32:44.300Z,1.33
2023-03-05T08:35:11.472Z,0.90
2023-03-05T08:37:38.648Z,0.90
2023-03-05T08:40:06.259Z,1.35
2023-03-05T08:42:33.382Z,1.20
2023-03-05T08:45:00.501Z,1.17
2023-03-05T08:47:28.152Z,1.40
2023-03-05T08:49:57.107Z,1.60
2023-03-05T08:52:24.336Z,1.05
2023-03-05T08:54:51.418Z,1.48
2023-03-05T08:57:18.543Z,1.42
2023-03-05T08:59:45.632Z,1.30
2023-03-05T09:04:39.815Z,1.50
2023-03-05T09:07:06.991Z,1.50
2023-03-05T09:09:34.283Z,1.67
2023-03-05T09:12:01.558Z,1.70
2023-03-05T09:14:29.036Z,1.40
2023-03-05T09:16:56.972Z,1.30
2023-03-05T09:19:24.490Z,1.50
2023-03-05T09:21:51.956Z,1.25
2023-03-05T09:24:19.048Z,1.45
2023-03-05T09:26:46.183Z,1.42
2023-03-05T09:29:13.260Z,1.63
2023-03-05T09:31:40.603Z,1.90
2023-03-05T09:34:09.133Z,1.42
2023-03-05T09:36:36.358Z,1.77
2023-03-05T09:39:04.153Z,1.48
2023-03-05T09:41:31.271Z,1.50
2023-03-05T09:44:01.063Z,1.58
2023-03-05T09:46:41.855Z,1.25
2023-03-05T09:49:11.791Z,1.30
2023-03-05T09:51:41.394Z,1.20
2023-03-05T09:54:18.373Z,1.30
2023-03-05T09:56:48.153Z,1.60
2023-03-05T09:59:18.058Z,1.40
2023-03-05T10:01:45.663Z,1.42
2023-03-05T10:04:24.825Z,1.58
2023-03-05T10:06:54.641Z,1.40
2023-03-05T10:09:31.170Z,1.30
2023-03-05T10:12:01.757Z,1.40
2023-03-05T10:14:30.906Z,1.50
2023-03-05T10:17:10.816Z,1.20
2023-03-05T10:19:50.059Z,1.35
2023-03-05T10:22:20.326Z,1.60
2023-03-05T10:24:53.232Z,1.25
2023-03-05T10:27:22.236Z,1.20
2023-03-05T10:30:09.154Z,1.55
2023-03-05T10:32:36.342Z,1.27
2023-03-05T10:35:21.562Z,1.30
2023-03-05T10:37:56.809Z,1.10
2023-03-05T10:40:33.371Z,0.85
2023-03-05T10:43:15.699Z,0.90
2023-03-05T10:45:44.546Z,0.90
2023-03-05T10:48:17.683Z,0.90
2023-03-05T10:50:47.004Z,1.00
2023-03-05T10:53:37.404Z,0.93
2023-03-05T10:56:05.574Z,1.15
2023-03-05T10:58:33.135Z,0.90
2023-03-05T11:01:26.690Z,1.00
2023-03-05T11:03:53.776Z,0.90
2023-03-05T11:06:27.178Z,0.70
2023-03-05T11:08:54.549Z,0.88
2023-03-05T11:11:22.416Z,1.00
2023-03-05T11:13:59.817Z,1.00
2023-03-05T11:16:28.515Z,1.27
2023-03-05T11:19:13.851Z,1.00
2023-03-05T11:21:41.522Z,1.05
2023-03-05T11:24:16.599Z,0.75
2023-03-05T11:26:53.772Z,0.73
2023-03-05T11:29:25.073Z,0.95
2023-03-05T11:31:53.093Z,1.10
2023-03-05T11:34:20.314Z,1.30
2023-03-05T11:36:53.567Z,1.00
2023-03-05T11:39:22.428Z,0.60
2023-03-05T11:41:51.315Z,1.05
2023-03-05T11:44:22.365Z,0.70
2023-03-05T11:46:51.618Z,0.70
2023-03-05T11:49:20.577Z,0.65
2023-03-05T11:52:00.984Z,0.93
2023-03-05T11:54:31.868Z,0.50
2023-03-05T11:57:01.298Z,1.30
2023-03-05T11:59:34.835Z,0.90
2023-03-05T12:02:02.045Z,1.10
2023-03-05T12:04:30.319Z,0.98
2023-03-05T12:06:59.082Z,1.55
2023-03-05T12:09:43.295Z,1.10
2023-03-05T12:12:23.078Z,1.35
2023-03-05T12:14:54.060Z,1.45
2023-03-05T12:17:23.891Z,1.85
2023-03-05T12:19:53.866Z,1.30
2023-03-05T12:22:23.022Z,1.75
2023-03-05T12:24:51.144Z,1.00
2023-03-05T12:27:35.138Z,1.13
2023-03-05T12:30:03.086Z,0.95
2023-03-05T12:32:33.169Z,1.00
2023-03-05T12:35:06.294Z,1.08
2023-03-05T12:37:33.342Z,0.80
2023-03-05T12:40:08.425Z,1.00
2023-03-05T12:42:35.486Z,0.70
2023-03-05T12:45:12.345Z,0.77
2023-03-05T12:47:40.561Z,0.90
2023-03-05T12:50:31.020Z,1.00
2023-03-05T12:53:10.246Z,0.80
2023-03-05T12:55:46.170Z,0.80
2023-03-05T12:58:16.063Z,0.93
2023-03-05T13:00:52.993Z,1.00
2023-03-05T13:03:22.634Z,0.80
2023-03-05T13:05:51.865Z,0.98
2023-03-05T13:08:23.788Z,1.05
2023-03-05T13:11:01.614Z,1.27
2023-03-05T13:13:30.453Z,1.15
2023-03-05T13:15:57.933Z,1.10
2023-03-05T13:18:26.536Z,0.95
2023-03-05T13:21:04.637Z,1.27
2023-03-05T13:23:32.446Z,0.82
2023-03-05T13:26:02.672Z,1.08
2023-03-05T13:28:30.182Z,1.17
2023-03-05T13:30:58.952Z,1.05
2023-03-05T13:33:30.381Z,0.90
2023-03-05T13:35:57.554Z,1.00
2023-03-05T13:38:33.961Z,1.23
2023-03-05T13:41:02.934Z,1.20
2023-03-05T13:43:30.069Z,1.20
2023-03-05T13:45:58.463Z,1.38
2023-03-05T13:48:26.692Z,1.20
2023-03-05T13:50:54.901Z,1.40
2023-03-05T13:53:29.321Z,1.33
2023-03-05T13:56:01.583Z,1.50
2023-03-05T13:58:50.746Z,1.90
2023-03-05T14:01:20.649Z,1.33
2023-03-05T14:03:51.686Z,1.50
2023-03-05T14:06:22.907Z,1.20
2023-03-05T14:08:53.814Z,1.50
2023-03-05T14:11:21.178Z,1.40
2023-03-05T14:13:49.258Z,1.20
2023-03-05T14:16:25.165Z,1.10
2023-03-05T14:18:59.738Z,0.90
2023-03-05T14:21:26.795Z,1.45
2023-03-05T14:23:55.002Z,1.50
2023-03-05T14:26:36.344Z,1.05
2023-03-05T14:29:09.507Z,1.20
2023-03-05T14:34:20.164Z,0.90
2023-03-05T14:36:49.540Z,1.10
2023-03-05T14:39:27.136Z,1.13
2023-03-05T14:41:54.289Z,1.23
2023-03-05T14:44:25.311Z,1.33
2023-03-05T14:46:52.437Z,1.63
2023-03-05T14:49:19.728Z,1.50
2023-03-05T14:51:47.370Z,1.35
2023-03-05T14:54:22.097Z,1.63
2023-03-05T14:56:49.698Z,2.30
2023-03-05T14:59:18.070Z,1.60
2023-03-05T15:01:45.203Z,2.10
2023-03-05T15:04:12.455Z,1.40
2023-03-05T15:06:40.692Z,1.40
2023-03-05T15:09:08.532Z,1.45
2023-03-05T15:11:35.633Z,1.40
2023-03-05T15:14:02.707Z,1.70
2023-03-05T15:16:32.187Z,1.70
2023-03-05T15:18:59.924Z,1.35
2023-03-05T15:21:26.968Z,1.40
2023-03-05T15:23:54.084Z,1.60
2023-03-05T15:26:21.781Z,1.55
2023-03-05T15:28:48.969Z,1.60
2023-03-05T15:31:18.263Z,1.40
2023-03-05T15:33:45.459Z,1.98
2023-03-05T15:36:13.584Z,1.73
2023-03-05T15:38:41.600Z,2.45
2023-03-05T15:41:08.740Z,1.77
2023-03-05T15:43:35.992Z,1.67
2023-03-05T15:46:05.010Z,1.98
2023-03-05T15:48:32.089Z,1.40
2023-03-05T15:50:59.207Z,1.50
2023-03-05T15:53:26.328Z,1.55
2023-03-05T15:55:53.403Z,1.30
2023-03-05T15:58:21.126Z,1.35
2023-03-05T16:00:49.013Z,1.10
2023-03-05T16:03:16.316Z,1.35
2023-03-05T16:05:43.578Z,1.30
2023-03-05T16:08:10.779Z,1.90
2023-03-05T16:10:39.553Z,2.00
2023-03-05T16:13:12.351Z,1.58
2023-03-05T16:15:40.429Z,1.50
2023-03-05T16:18:10.681Z,1.83
2023-03-05T16:20:38.118Z,2.10
2023-03-05T16:23:05.811Z,1.88
2023-03-05T16:25:33.213Z,1.83
2023-03-05T16:28:00.325Z,1.70
2023-03-05T16:30:27.502Z,2.40
2023-03-05T16:32:54.666Z,1.88
2023-03-05T16:35:22.034Z,2.40
2023-03-05T16:37:49.204Z,1.75
2023-03-05T16:40:16.571Z,1.80
2023-03-05T16:42:43.749Z,1.23
2023-03-05T16:45:11.384Z,1.40
2023-03-05T16:47:38.592Z,1.77
2023-03-05T16:50:06.520Z,1.50
2023-03-05T16:52:34.597Z,1.55
2023-03-05T16:55:01.712Z,1.45
2023-03-05T16:57:29.241Z,1.50
2023-03-05T16:59:56.768Z,1.67
2023-03-05T17:02:24.161Z,1.70
2023-03-05T17:04:51.429Z,2.05
2023-03-05T17:07:18.976Z,1.45
2023-03-05T17:09:47.960Z,1.48
2023-03-05T17:12:15.131Z,1.80
2023-03-05T17:14:42.321Z,2.17
2023-03-05T17:17:09.573Z,1.67
2023-03-05T17:19:36.988Z,2.40
2023-03-05T17:22:04.722Z,1.83
2023-03-05T17:24:32.881Z,1.98
2023-03-05T17:27:00.497Z,1.90
2023-03-05T17:29:27.658Z,1.50
2023-03-05T17:31:55.021Z,1.60
2023-03-05T17:34:33.320Z,2.10
2023-03-05T17:37:03.186Z,2.03
2023-03-05T17:39:30.840Z,1.50
2023-03-05T17:41:58.056Z,1.88
2023-03-05T17:44:25.347Z,1.95
2023-03-05T17:46:52.637Z,1.63
2023-03-05T17:49:19.963Z,2.17
2023-03-05T17:51:47.086Z,2.58
2023-03-05T17:54:14.388Z,1.90
2023-03-05T17:56:41.516Z,2.22
2023-03-05T17:59:08.727Z,3.40
2023-03-05T18:01:36.061Z,2.30
2023-03-05T18:04:03.319Z,2.13
2023-03-05T18:06:30.588Z,2.67
2023-03-05T18:08:57.957Z,2.83
2023-03-05T18:11:25.212Z,3.33
2023-03-05T18:13:52.389Z,2.80
2023-03-05T18:16:19.629Z,2.85
2023-03-05T18:18:46.771Z,2.80
2023-03-05T18:21:14.292Z,3.03
2023-03-05T18:23:41.425Z,2.53
2023-03-05T18:26:08.556Z,2.40
2023-03-05T18:28:35.625Z,2.05
2023-03-05T18:31:02.791Z,2.20
2023-03-05T18:33:29.927Z,1.90
2023-03-05T18:35:57.984Z,2.00
2023-03-05T18:38:26.494Z,1.60
2023-03-05T18:40:54.679Z,3.38
2023-03-05T18:43:22.368Z,2.63
2023-03-05T18:45:50.692Z,3.00
2023-03-05T18:48:17.798Z,4.35
2023-03-05T18:50:45.298Z,5.40
2023-03-05T18:53:15.377Z,3.00
2023-03-05T18:55:42.808Z,3.22
2023-03-05T18:58:10.269Z,2.80
2023-03-05T19:00:37.385Z,3.10
2023-03-05T19:03:05.793Z,3.65
2023-03-05T19:05:33.220Z,2.30
2023-03-05T19:08:01.045Z,2.72
2023-03-05T19:10:28.273Z,2.63
2023-03-05T19:13:07.851Z,3.33
2023-03-05T19:15:34.940Z,4.15
2023-03-05T19:18:02.062Z,4.43
2023-03-05T19:20:29.217Z,3.70
2023-03-05T19:22:56.431Z,3.88
2023-03-05T19:25:23.788Z,3.28
2023-03-05T19:27:50.894Z,3.00
2023-03-05T19:30:18.074Z,2.60
2023-03-05T19:32:47.162Z,2.63
2023-03-05T19:35:17.527Z,3.60
2023-03-05T19:37:45.885Z,3.10
2023-03-05T19:40:14.649Z,3.13
2023-03-05T19:42:41.752Z,3.22
2023-03-05T19:45:09.275Z,3.03
2023-03-05T19:47:36.401Z,2.70
2023-03-05T19:50:05.235Z,3.65
2023-03-05T19:52:32.399Z,3.05
2023-03-05T19:55:00.172Z,2.78
2023-03-05T19:57:27.284Z,2.83
2023-03-05T19:59:54.416Z,2.55
2023-03-05T20:02:21.972Z,2.08
2023-03-05T20:04:49.555Z,2.00
2023-03-05T20:07:16.844Z,2.10
2023-03-05T20:09:44.111Z,1.75
2023-03-05T20:12:11.365Z,2.53
2023-03-05T20:14:38.536Z,2.00
2023-03-05T20:17:05.610Z,1.58
2023-03-05T20:19:32.840Z,1.65
2023-03-05T20:21:59.959Z,1.60
2023-03-05T20:24:27.153Z,1.77
2023-03-05T20:26:54.300Z,1.88
2023-03-05T20:29:21.484Z,1.92
2023-03-05T20:31:49.944Z,1.85
2023-03-05T20:34:18.451Z,2.15
2023-03-05T20:36:46.448Z,1.85
2023-03-05T20:39:13.687Z,2.47
2023-03-05T20:41:42.284Z,1.90
2023-03-05T20:44:11.338Z,2.67
2023-03-05T20:46:41.762Z,2.35
2023-03-05T20:49:09.985Z,1.80
2023-03-05T20:51:38.263Z,1.98
2023-03-05T20:54:07.303Z,2.60
2023-03-05T20:56:34.983Z,2.60
2023-03-05T20:59:04.466Z,2.35
2023-03-05T21:01:32.835Z,2.20
2023-03-05T21:04:00.884Z,2.00
2023-03-05T21:06:28.592Z,2.00
2023-03-05T21:08:55.762Z,1.58
2023-03-05T21:11:22.980Z,1.85
2023-03-05T21:13:50.051Z,1.88
2023-03-05T21:16:18.829Z,1.98
2023-03-05T21:18:46.153Z,1.83
2023-03-05T21:21:13.255Z,1.48
2023-03-05T21:23:40.491Z,1.30
2023-03-05T21:26:07.702Z,1.70
2023-03-05T21:28:34.900Z,1.88
2023-03-05T21:31:07.005Z,1.65
2023-03-05T21:33:34.185Z,1.73
2023-03-05T21:36:01.446Z,1.92
2023-03-05T21:38:30.777Z,1.90
2023-03-05T21:40:58.791Z,1.60
2023-03-05T21:43:26.589Z,2.08
2023-03-05T21:45:54.853Z,1.70
2023-03-05T21:48:22.666Z,1.75
2023-03-05T21:50:50.107Z,1.48
2023-03-05T21:53:17.783Z,1.73
2023-03-05T21:55:58.994Z,1.70
2023-03-05T21:58:26.269Z,2.13
2023-03-05T22:00:53.328Z,2.33
2023-03-05T22:03:20.518Z,2.00
2023-03-05T22:05:47.756Z,2.20
2023-03-05T22:08:14.902Z,1.80
2023-03-05T22:10:42.496Z,1.63
2023-03-05T22:13:10.411Z,1.83
2023-03-05T22:15:48.655Z,2.00
2023-03-05T22:18:16.826Z,2.22
2023-03-05T22:20:43.964Z,2.08
2023-03-05T22:23:11.678Z,2.88
2023-03-05T22:25:39.017Z,2.08
2023-03-05T22:28:06.230Z,2.20
2023-03-05T22:30:33.605Z,2.25
2023-03-05T22:33:01.968Z,1.63
2023-03-05T22:35:29.858Z,1.90
2023-03-05T22:37:57.111Z,1.33
2023-03-05T22:40:24.233Z,1.33
2023-03-05T22:42:51.292Z,1.50
2023-03-05T22:45:18.794Z,1.02
2023-03-05T22:47:49.454Z,1.17
2023-03-05T22:50:17.171Z,1.20
2023-03-05T22:52:44.369Z,1.23
2023-03-05T22:55:12.484Z,1.25
2023-03-05T22:57:39.832Z,1.15
2023-03-05T23:00:09.155Z,1.38
2023-03-05T23:02:36.361Z,1.20
2023-03-05T23:05:03.555Z,1.40
2023-03-05T23:07:32.535Z,1.40
2023-03-05T23:10:05.379Z,1.10
2023-03-05T23:12:33.629Z,1.67
2023-03-05T23:15:01.384Z,1.33
2023-03-05T23:17:28.456Z,1.40
2023-03-05T23:22:22.208Z,1.30
2023-03-05T23:24:49.377Z,1.42
2023-03-05T23:27:17.005Z,1.60
2023-03-05T23:29:58.806Z,1.40
2023-03-05T23:32:29.800Z,1.45
2023-03-05T23:34:56.981Z,1.48
2023-03-05T23:37:24.111Z,1.58
2023-03-05T23:39:51.212Z,1.70
2023-03-05T23:42:18.311Z,1.65
2023-03-05T23:47:11.952Z,1.33
2023-03-05T23:52:05.827Z,1.08
2023-03-05T23:54:33.000Z,1.42
2023-03-05T23:57:00.103Z,1.23
